createdAt,value
2023-05-19T00:01:04.885Z,48.60
2023-05-19T00:03:31.499Z,48.30
2023-05-19T00:05:58.154Z,48.90
2023-05-19T00:08:24.692Z,48.40
2023-05-19T00:10:51.267Z,48.80
2023-05-19T00:13:17.805Z,48.80
2023-05-19T00:15:44.324Z,48.40
2023-05-19T00:18:10.958Z,48.80
2023-05-19T00:20:37.539Z,48.50
2023-05-19T00:23:04.057Z,48.80
2023-05-19T00:25:30.581Z,48.40
2023-05-19T00:27:57.111Z,48.30
2023-05-19T00:30:23.655Z,48.40
2023-05-19T00:32:50.281Z,48.80
2023-05-19T00:35:16.836Z,48.40
2023-05-19T00:37:43.360Z,48.30
2023-05-19T00:40:09.897Z,48.80
2023-05-19T00:42:36.461Z,48.40
2023-05-19T00:45:02.991Z,48.80
2023-05-19T00:49:56.725Z,48.60
2023-05-19T00:52:23.302Z,48.40
2023-05-19T00:54:49.791Z,48.60
2023-05-19T00:57:16.274Z,48.30
2023-05-19T00:59:42.783Z,48.80
2023-05-19T01:02:09.325Z,48.20
2023-05-19T01:04:35.846Z,48.80
2023-05-19T01:09:29.398Z,48.00
2023-05-19T01:11:55.950Z,48.40
2023-05-19T01:14:22.486Z,48.10
2023-05-19T01:16:49.096Z,48.20
2023-05-19T01:19:15.752Z,48.70
2023-05-19T01:21:42.306Z,48.10
2023-05-19T01:26:35.861Z,48.70
2023-05-19T01:29:02.402Z,48.30
2023-05-19T01:31:28.952Z,48.30
2023-05-19T01:33:55.486Z,48.40
2023-05-19T01:36:22.054Z,48.30
2023-05-19T01:38:48.577Z,49.30
2023-05-19T01:41:15.100Z,48.50
2023-05-19T01:43:41.607Z,48.70
2023-05-19T01:46:08.132Z,48.40
2023-05-19T01:48:34.667Z,48.60
2023-05-19T01:51:01.157Z,48.80
2023-05-19T01:53:27.709Z,48.40
2023-05-19T01:55:54.254Z,48.20
2023-05-19T01:58:20.892Z,49.40
2023-05-19T02:00:47.438Z,48.30
2023-05-19T02:03:13.971Z,48.70
2023-05-19T02:05:40.535Z,48.70
2023-05-19T02:08:07.040Z,48.20
2023-05-19T02:10:33.803Z,48.70
2023-05-19T02:13:00.557Z,48.40
2023-05-19T02:15:27.090Z,48.80
2023-05-19T02:17:53.644Z,48.40
2023-05-19T02:20:20.141Z,48.40
2023-05-19T02:22:46.681Z,48.20
2023-05-19T02:25:13.241Z,48.70
2023-05-19T02:27:39.754Z,48.30
2023-05-19T02:30:06.283Z,48.40
2023-05-19T02:32:32.843Z,48.70
2023-05-19T02:34:59.371Z,48.40
2023-05-19T02:39:52.968Z,48.20
2023-05-19T02:42:19.501Z,47.90
2023-05-19T02:44:46.071Z,47.80
2023-05-19T02:47:12.596Z,48.70
2023-05-19T02:49:39.133Z,48.70
2023-05-19T02:52:05.661Z,48.50
2023-05-19T02:54:32.174Z,48.10
2023-05-19T02:56:58.699Z,48.10
2023-05-19T02:59:25.839Z,48.70
2023-05-19T03:01:52.415Z,48.40
2023-05-19T03:04:18.947Z,48.70
2023-05-19T03:06:45.457Z,48.10
2023-05-19T03:09:12.053Z,48.20
2023-05-19T03:11:38.597Z,48.20
2023-05-19T03:14:05.136Z,48.10
2023-05-19T03:16:31.741Z,48.20
2023-05-19T03:18:58.408Z,48.10
2023-05-19T03:21:24.959Z,47.90
2023-05-19T03:23:51.477Z,48.60
2023-05-19T03:26:17.996Z,48.10
2023-05-19T03:28:44.537Z,48.60
2023-05-19T03:31:11.066Z,48.50
2023-05-19T03:33:37.690Z,48.10
2023-05-19T03:36:04.284Z,48.60
2023-05-19T03:38:30.788Z,48.20
2023-05-19T03:40:57.334Z,48.00
2023-05-19T03:43:23.869Z,48.20
2023-05-19T03:45:50.418Z,48.10
2023-05-19T03:48:18.488Z,48.50
2023-05-19T03:50:46.958Z,48.10
2023-05-19T03:53:13.482Z,48.30
2023-05-19T03:55:39.980Z,48.30
2023-05-19T03:58:06.620Z,48.30
2023-05-19T04:00:33.444Z,48.50
2023-05-19T04:03:00.555Z,48.10
2023-05-19T04:05:27.249Z,48.10
2023-05-19T04:07:53.792Z,48.50
2023-05-19T04:12:47.408Z,48.60
2023-05-19T04:15:13.974Z,48.80
2023-05-19T04:17:40.568Z,48.50
2023-05-19T04:20:07.150Z,47.90
2023-05-19T04:22:33.632Z,47.90
2023-05-19T04:25:00.159Z,48.00
2023-05-19T04:27:26.671Z,48.50
2023-05-19T04:29:53.199Z,48.40
2023-05-19T04:32:19.737Z,48.10
2023-05-19T04:34:46.303Z,48.00
2023-05-19T04:37:12.870Z,48.50
2023-05-19T04:39:39.396Z,47.90
2023-05-19T04:42:05.912Z,48.00
2023-05-19T04:44:32.443Z,48.20
2023-05-19T04:46:58.995Z,48.60
2023-05-19T04:49:25.542Z,48.20
2023-05-19T04:51:54.098Z,48.20
2023-05-19T04:54:22.227Z,48.40
2023-05-19T04:56:48.734Z,48.60
2023-05-19T04:59:15.235Z,48.40
2023-05-19T05:01:41.828Z,48.20
2023-05-19T05:04:08.520Z,48.80
2023-05-19T05:06:35.107Z,47.70
2023-05-19T05:09:01.612Z,48.60
2023-05-19T05:11:28.102Z,48.50
2023-05-19T05:13:54.614Z,48.40
2023-05-19T05:18:48.245Z,48.30
2023-05-19T05:21:14.797Z,48.30
2023-05-19T05:23:41.297Z,48.20
2023-05-19T05:26:07.848Z,48.60
2023-05-19T05:28:34.375Z,48.10
2023-05-19T05:31:00.915Z,48.20
2023-05-19T05:33:27.602Z,48.60
2023-05-19T05:35:54.271Z,48.00
2023-05-19T05:38:20.841Z,48.30
2023-05-19T05:40:47.383Z,48.60
2023-05-19T05:43:13.942Z,48.00
2023-05-19T05:45:40.508Z,48.70
2023-05-19T05:48:07.146Z,48.10
2023-05-19T05:50:33.774Z,48.10
2023-05-19T05:53:00.323Z,48.10
2023-05-19T05:55:26.886Z,48.70
2023-05-19T05:57:53.445Z,48.30
2023-05-19T06:00:19.973Z,48.80
2023-05-19T06:02:46.598Z,48.70
2023-05-19T06:07:40.303Z,48.50
2023-05-19T06:10:06.856Z,48.70
2023-05-19T06:12:33.378Z,48.90
2023-05-19T06:14:59.935Z,48.40
2023-05-19T06:17:26.560Z,48.80
2023-05-19T06:19:53.096Z,48.40
2023-05-19T06:24:46.680Z,48.60
2023-05-19T06:27:13.221Z,49.10
2023-05-19T06:29:39.749Z,48.30
2023-05-19T06:32:06.320Z,48.60
2023-05-19T06:34:32.846Z,49.00
2023-05-19T06:36:59.357Z,49.20
2023-05-19T06:39:25.885Z,49.20
2023-05-19T06:41:52.394Z,48.70
2023-05-19T06:44:21.038Z,49.10
2023-05-19T06:46:47.839Z,48.90
2023-05-19T06:49:14.430Z,49.30
2023-05-19T06:54:08.013Z,48.90
2023-05-19T06:56:34.519Z,49.20
2023-05-19T06:59:01.076Z,49.40
2023-05-19T07:01:27.606Z,49.00
2023-05-19T07:03:54.251Z,49.50
2023-05-19T07:06:20.870Z,49.70
2023-05-19T07:08:47.622Z,49.20
2023-05-19T07:11:14.434Z,49.10
2023-05-19T07:13:40.974Z,49.20
2023-05-19T07:16:07.683Z,49.20
2023-05-19T07:18:34.280Z,49.40
2023-05-19T07:23:27.888Z,49.30
2023-05-19T07:25:54.481Z,49.30
2023-05-19T07:28:20.981Z,49.10
2023-05-19T07:30:47.711Z,49.00
2023-05-19T07:33:14.362Z,49.70
2023-05-19T07:35:40.949Z,49.60
2023-05-19T07:38:07.566Z,49.30
2023-05-19T07:40:34.365Z,49.80
2023-05-19T07:43:01.021Z,49.50
2023-05-19T07:47:54.695Z,49.60
2023-05-19T07:50:21.254Z,50.00
2023-05-19T07:55:14.855Z,49.40
2023-05-19T07:57:41.393Z,49.80
2023-05-19T08:00:07.911Z,49.30
2023-05-19T08:02:34.521Z,48.80
2023-05-19T08:05:01.104Z,49.30
2023-05-19T08:07:27.659Z,49.80
2023-05-19T08:09:54.189Z,50.20
2023-05-19T08:12:20.791Z,49.80
2023-05-19T08:14:47.297Z,49.50
2023-05-19T08:17:13.869Z,50.00
2023-05-19T08:19:40.408Z,50.00
2023-05-19T08:22:06.959Z,49.30
2023-05-19T08:24:33.498Z,49.60
2023-05-19T08:27:00.050Z,49.30
2023-05-19T08:29:26.636Z,49.80
2023-05-19T08:31:53.306Z,49.40
2023-05-19T08:34:19.930Z,49.50
2023-05-19T08:36:46.442Z,49.30
2023-05-19T08:39:13.000Z,49.20
2023-05-19T08:41:39.495Z,49.60
2023-05-19T08:46:33.104Z,49.30
2023-05-19T08:48:59.712Z,48.90
2023-05-19T08:51:26.208Z,49.20
2023-05-19T08:53:52.706Z,49.10
2023-05-19T08:56:19.251Z,49.30
2023-05-19T08:58:45.831Z,49.60
2023-05-19T09:01:12.413Z,49.20
2023-05-19T09:03:39.014Z,49.10
2023-05-19T09:06:05.620Z,49.30
2023-05-19T09:08:32.172Z,49.30
2023-05-19T09:10:58.718Z,49.60
2023-05-19T09:13:25.193Z,49.10
2023-05-19T09:15:51.706Z,49.30
2023-05-19T09:18:18.261Z,49.20
2023-05-19T09:20:44.834Z,49.70
2023-05-19T09:23:11.358Z,49.70
2023-05-19T09:25:37.874Z,49.40
2023-05-19T09:28:04.428Z,49.40
2023-05-19T09:30:30.927Z,49.70
2023-05-19T09:32:57.508Z,49.30
2023-05-19T09:35:24.107Z,49.10
2023-05-19T09:37:50.617Z,49.70
2023-05-19T09:40:17.174Z,49.60
2023-05-19T09:42:43.682Z,49.10
2023-05-19T09:45:10.199Z,49.10
2023-05-19T09:47:36.778Z,49.70
2023-05-19T09:50:03.320Z,49.00
2023-05-19T09:52:29.837Z,49.40
2023-05-19T09:54:56.501Z,49.70
2023-05-19T09:57:23.032Z,49.40
2023-05-19T09:59:49.545Z,49.60
2023-05-19T10:02:16.095Z,49.60
2023-05-19T10:04:42.600Z,49.80
2023-05-19T10:07:09.132Z,49.30
2023-05-19T10:09:35.620Z,49.80
2023-05-19T10:12:02.191Z,49.80
2023-05-19T10:14:28.722Z,50.30
2023-05-19T10:16:55.405Z,49.90
2023-05-19T10:19:22.035Z,49.40
2023-05-19T10:21:48.650Z,50.00
2023-05-19T10:24:15.202Z,49.60
2023-05-19T10:26:41.792Z,50.70
2023-05-19T10:29:08.390Z,52.10
2023-05-19T10:31:34.938Z,50.80
2023-05-19T10:34:01.559Z,51.40
2023-05-19T10:36:28.065Z,51.30
2023-05-19T10:38:54.618Z,50.70
2023-05-19T10:41:21.141Z,51.10
2023-05-19T10:43:47.712Z,51.00
2023-05-19T10:46:14.317Z,51.50
2023-05-19T10:48:40.833Z,50.60
2023-05-19T10:51:07.350Z,51.60
2023-05-19T10:53:33.890Z,50.60
2023-05-19T10:56:00.387Z,51.00
2023-05-19T10:58:26.975Z,50.90
2023-05-19T11:00:53.498Z,50.40
2023-05-19T11:03:20.034Z,50.50
2023-05-19T11:05:46.582Z,51.00
2023-05-19T11:08:13.117Z,50.90
2023-05-19T11:10:39.693Z,51.10
2023-05-19T11:13:06.460Z,50.50
2023-05-19T11:15:33.622Z,51.00
2023-05-19T11:18:00.482Z,50.20
2023-05-19T11:20:27.046Z,50.80
2023-05-19T11:22:53.686Z,50.60
2023-05-19T11:25:20.243Z,50.30
2023-05-19T11:27:46.797Z,50.40
2023-05-19T11:30:13.342Z,50.10
2023-05-19T11:32:39.949Z,49.80
2023-05-19T11:35:06.493Z,49.90
2023-05-19T11:37:33.018Z,50.00
2023-05-19T11:39:59.553Z,49.90
2023-05-19T11:42:26.126Z,50.00
2023-05-19T11:44:52.669Z,49.70
2023-05-19T11:47:19.201Z,49.60
2023-05-19T11:49:45.740Z,50.20
2023-05-19T11:52:12.243Z,49.70
2023-05-19T11:54:38.774Z,50.10
2023-05-19T11:57:05.269Z,50.10
2023-05-19T11:59:33.367Z,50.10
2023-05-19T12:02:01.428Z,49.30
2023-05-19T12:04:27.999Z,50.00
2023-05-19T12:06:54.565Z,50.00
2023-05-19T12:09:21.108Z,50.00
2023-05-19T12:11:47.664Z,49.80
2023-05-19T12:14:14.159Z,49.80
2023-05-19T12:16:40.675Z,50.00
2023-05-19T12:19:07.270Z,50.30
2023-05-19T12:21:34.427Z,49.70
2023-05-19T12:24:01.118Z,50.10
2023-05-19T12:26:27.645Z,50.00
2023-05-19T12:28:54.166Z,49.60
2023-05-19T12:31:20.773Z,49.40
2023-05-19T12:33:47.303Z,49.80
2023-05-19T12:36:13.852Z,50.00
2023-05-19T12:38:40.341Z,49.60
2023-05-19T12:41:06.950Z,49.80
2023-05-19T12:43:33.506Z,49.40
2023-05-19T12:46:00.215Z,49.90
2023-05-19T12:48:26.773Z,50.00
2023-05-19T12:50:53.368Z,50.10
2023-05-19T12:53:19.912Z,49.90
2023-05-19T12:55:46.483Z,50.10
2023-05-19T12:58:13.617Z,49.50
2023-05-19T13:00:40.211Z,49.80
2023-05-19T13:03:06.894Z,50.00
2023-05-19T13:05:33.643Z,49.40
2023-05-19T13:08:00.208Z,49.60
2023-05-19T13:10:26.736Z,49.40
2023-05-19T13:12:53.243Z,49.40
2023-05-19T13:15:19.769Z,50.10
2023-05-19T13:17:46.288Z,49.50
2023-05-19T13:20:12.833Z,49.50
2023-05-19T13:22:39.388Z,49.60
2023-05-19T13:25:05.923Z,50.00
2023-05-19T13:27:32.448Z,50.10
2023-05-19T13:29:58.961Z,50.10
2023-05-19T13:32:25.472Z,50.10
2023-05-19T13:34:52.083Z,49.50
2023-05-19T13:39:45.702Z,49.40
2023-05-19T13:42:12.224Z,49.40
2023-05-19T13:44:38.766Z,49.10
2023-05-19T13:47:05.332Z,49.40
2023-05-19T13:49:31.896Z,49.50
2023-05-19T13:51:58.412Z,49.50
2023-05-19T13:54:24.948Z,49.40
2023-05-19T13:56:51.468Z,49.40
2023-05-19T13:59:18.032Z,49.90
2023-05-19T14:01:44.587Z,49.90
2023-05-19T14:04:11.241Z,50.00
2023-05-19T14:06:37.993Z,49.70
2023-05-19T14:09:04.552Z,50.00
2023-05-19T14:11:31.111Z,49.60
2023-05-19T14:13:57.726Z,49.50
2023-05-19T14:18:51.331Z,49.10
2023-05-19T14:21:17.873Z,49.40
2023-05-19T14:23:44.402Z,49.60
2023-05-19T14:26:10.915Z,49.90
2023-05-19T14:28:37.429Z,49.80
2023-05-19T14:31:03.935Z,49.90
2023-05-19T14:33:34.867Z,49.30
2023-05-19T14:36:02.052Z,49.60
2023-05-19T14:38:29.440Z,49.70
2023-05-19T14:40:56.225Z,49.40
2023-05-19T14:43:22.717Z,50.00
2023-05-19T14:45:49.238Z,50.00
2023-05-19T14:48:15.830Z,49.40
2023-05-19T14:50:42.420Z,49.70
2023-05-19T14:53:08.970Z,49.60
2023-05-19T14:55:35.490Z,50.20
2023-05-19T14:58:03.362Z,49.60
2023-05-19T15:00:31.134Z,49.40
2023-05-19T15:02:57.813Z,50.10
2023-05-19T15:05:24.441Z,49.70
2023-05-19T15:07:50.947Z,49.80
2023-05-19T15:10:17.516Z,49.90
2023-05-19T15:12:44.063Z,49.70
2023-05-19T15:15:10.621Z,49.40
2023-05-19T15:17:37.227Z,49.80
2023-05-19T15:20:03.814Z,49.80
2023-05-19T15:22:30.342Z,49.60
2023-05-19T15:24:56.848Z,49.70
2023-05-19T15:27:23.425Z,49.90
2023-05-19T15:29:49.942Z,49.90
2023-05-19T15:32:16.462Z,48.90
2023-05-19T15:34:43.001Z,50.60
2023-05-19T15:37:09.512Z,50.00
2023-05-19T15:39:36.029Z,49.30
2023-05-19T15:42:02.550Z,49.30
2023-05-19T15:44:29.231Z,49.20
2023-05-19T15:46:55.781Z,49.30
2023-05-19T15:49:22.285Z,49.20
2023-05-19T15:51:48.794Z,49.20
2023-05-19T15:54:15.325Z,49.80
2023-05-19T15:56:41.875Z,50.10
2023-05-19T16:01:35.499Z,49.50
2023-05-19T16:04:02.167Z,49.70
2023-05-19T16:06:28.856Z,50.30
2023-05-19T16:08:55.404Z,49.70
2023-05-19T16:11:21.940Z,49.70
2023-05-19T16:13:48.463Z,50.40
2023-05-19T16:16:14.986Z,50.10
2023-05-19T16:18:41.511Z,49.90
2023-05-19T16:21:08.034Z,50.50
2023-05-19T16:23:34.590Z,50.20
2023-05-19T16:26:01.125Z,50.10
2023-05-19T16:28:27.642Z,50.30
2023-05-19T16:30:54.165Z,50.40
2023-05-19T16:33:20.665Z,49.80
2023-05-19T16:35:47.299Z,50.00
2023-05-19T16:38:13.894Z,50.30
2023-05-19T16:40:40.472Z,50.60
2023-05-19T16:43:06.971Z,50.80
2023-05-19T16:45:33.526Z,50.60
2023-05-19T16:48:00.118Z,50.50
2023-05-19T16:50:26.770Z,50.50
2023-05-19T16:52:53.337Z,50.60
2023-05-19T16:55:19.938Z,51.00
2023-05-19T16:57:46.435Z,50.90
2023-05-19T17:00:12.940Z,50.50
2023-05-19T17:02:39.622Z,51.00
2023-05-19T17:05:06.198Z,50.00
2023-05-19T17:07:32.735Z,50.50
2023-05-19T17:09:59.254Z,50.90
2023-05-19T17:12:25.811Z,50.10
2023-05-19T17:14:52.345Z,50.60
2023-05-19T17:17:18.840Z,50.20
2023-05-19T17:19:45.347Z,50.40
2023-05-19T17:22:11.887Z,50.40
2023-05-19T17:24:38.442Z,49.80
2023-05-19T17:27:04.934Z,49.90
2023-05-19T17:29:31.480Z,49.90
2023-05-19T17:31:58.086Z,49.80
2023-05-19T17:34:24.680Z,49.80
2023-05-19T17:36:51.219Z,50.00
2023-05-19T17:39:17.694Z,50.50
2023-05-19T17:41:44.257Z,49.40
2023-05-19T17:44:10.811Z,49.60
2023-05-19T17:46:37.485Z,49.30
2023-05-19T17:49:04.076Z,49.60
2023-05-19T17:51:30.600Z,49.40
2023-05-19T17:53:57.104Z,49.70
2023-05-19T17:56:23.658Z,49.80
2023-05-19T17:58:50.367Z,49.70
2023-05-19T18:01:16.923Z,49.50
2023-05-19T18:03:43.600Z,49.60
2023-05-19T18:06:10.228Z,49.40
2023-05-19T18:08:36.714Z,49.80
2023-05-19T18:11:03.296Z,49.40
2023-05-19T18:13:29.799Z,49.90
2023-05-19T18:15:56.397Z,50.40
2023-05-19T18:18:23.010Z,49.80
2023-05-19T18:20:49.541Z,50.30
2023-05-19T18:23:16.057Z,50.10
2023-05-19T18:25:42.570Z,50.20
2023-05-19T18:28:09.130Z,50.60
2023-05-19T18:30:35.789Z,50.50
2023-05-19T18:33:02.408Z,50.80
2023-05-19T18:35:28.905Z,50.60
2023-05-19T18:37:55.406Z,50.90
2023-05-19T18:40:21.948Z,51.20
2023-05-19T18:42:48.458Z,51.10
2023-05-19T18:45:16.872Z,50.50
2023-05-19T18:47:43.407Z,50.70
2023-05-19T18:50:09.941Z,50.40
2023-05-19T18:52:36.460Z,50.60
2023-05-19T18:55:02.992Z,50.50
2023-05-19T18:57:29.571Z,51.10
2023-05-19T18:59:56.086Z,50.60
2023-05-19T19:02:22.624Z,50.60
2023-05-19T19:04:49.169Z,50.60
2023-05-19T19:07:15.925Z,50.50
2023-05-19T19:09:42.431Z,51.00
2023-05-19T19:12:08.983Z,50.30
2023-05-19T19:14:35.497Z,50.90
2023-05-19T19:17:02.049Z,50.70
2023-05-19T19:19:28.729Z,50.40
2023-05-19T19:21:55.307Z,50.60
2023-05-19T19:24:21.799Z,51.40
2023-05-19T19:26:48.291Z,50.70
2023-05-19T19:29:14.866Z,51.20
2023-05-19T19:31:41.444Z,50.80
2023-05-19T19:34:08.026Z,50.60
2023-05-19T19:36:34.591Z,50.60
2023-05-19T19:39:01.092Z,50.40
2023-05-19T19:41:27.641Z,50.50
2023-05-19T19:43:54.146Z,50.30
2023-05-19T19:46:20.754Z,50.30
2023-05-19T19:48:47.277Z,51.00
2023-05-19T19:51:13.798Z,50.30
2023-05-19T19:53:40.300Z,50.30
2023-05-19T19:56:06.801Z,50.80
2023-05-19T19:58:33.292Z,51.00
2023-05-19T20:00:59.806Z,50.20
2023-05-19T20:03:26.418Z,50.50
2023-05-19T20:05:52.967Z,50.20
2023-05-19T20:08:19.505Z,50.90
2023-05-19T20:10:46.033Z,50.40
2023-05-19T20:13:12.610Z,51.50
2023-05-19T20:15:39.118Z,50.90
2023-05-19T20:18:05.732Z,50.90
2023-05-19T20:20:32.435Z,50.80
2023-05-19T20:22:59.073Z,50.30
2023-05-19T20:25:25.598Z,50.20
2023-05-19T20:27:52.118Z,50.80
2023-05-19T20:30:18.621Z,50.70
2023-05-19T20:32:45.189Z,50.80
2023-05-19T20:35:11.743Z,50.80
2023-05-19T20:37:38.253Z,50.80
2023-05-19T20:40:04.781Z,50.80
2023-05-19T20:42:31.274Z,50.10
2023-05-19T20:44:57.840Z,50.40
2023-05-19T20:47:24.367Z,50.80
2023-05-19T20:49:50.988Z,50.20
2023-05-19T20:52:17.528Z,50.00
2023-05-19T20:54:44.070Z,51.30
2023-05-19T20:57:10.637Z,50.30
2023-05-19T20:59:37.169Z,50.90
2023-05-19T21:02:03.694Z,50.20
2023-05-19T21:04:30.206Z,50.10
2023-05-19T21:06:56.859Z,50.60
2023-05-19T21:09:23.426Z,49.80
2023-05-19T21:11:49.960Z,49.60
2023-05-19T21:14:16.495Z,49.80
2023-05-19T21:16:43.005Z,50.40
2023-05-19T21:19:09.577Z,50.30
2023-05-19T21:21:36.153Z,49.60
2023-05-19T21:24:02.689Z,50.20
2023-05-19T21:26:29.206Z,49.60
2023-05-19T21:28:55.694Z,49.60
2023-05-19T21:31:22.365Z,49.90
2023-05-19T21:33:48.860Z,50.10
2023-05-19T21:36:15.367Z,49.50
2023-05-19T21:38:41.857Z,50.00
2023-05-19T21:41:08.380Z,50.20
2023-05-19T21:43:34.876Z,49.80
2023-05-19T21:46:01.465Z,50.00
2023-05-19T21:48:28.058Z,50.10
2023-05-19T21:50:54.615Z,49.70
2023-05-19T21:53:21.142Z,50.20
2023-05-19T21:55:47.660Z,50.10
2023-05-19T21:58:14.184Z,49.60
2023-05-19T22:00:40.684Z,50.10
2023-05-19T22:03:07.338Z,49.50
2023-05-19T22:05:33.920Z,49.70
2023-05-19T22:08:00.445Z,50.20
2023-05-19T22:12:54.049Z,49.60
2023-05-19T22:15:20.593Z,50.10
2023-05-19T22:17:47.208Z,50.10
2023-05-19T22:20:13.737Z,50.10
2023-05-19T22:22:40.301Z,49.70
2023-05-19T22:25:06.978Z,50.00
2023-05-19T22:27:33.543Z,50.00
2023-05-19T22:30:00.053Z,49.70
2023-05-19T22:32:26.599Z,49.50
2023-05-19T22:34:53.353Z,50.10
2023-05-19T22:37:20.014Z,50.20
2023-05-19T22:39:46.509Z,49.70
2023-05-19T22:42:12.989Z,48.80
2023-05-19T22:44:39.566Z,49.90
2023-05-19T22:47:06.111Z,50.10
2023-05-19T22:51:59.723Z,49.60
2023-05-19T22:54:26.242Z,50.10
2023-05-19T22:56:52.752Z,50.10
2023-05-19T22:59:19.262Z,49.80
2023-05-19T23:01:45.878Z,49.70
2023-05-19T23:04:12.562Z,49.40
2023-05-19T23:06:39.104Z,49.70
2023-05-19T23:09:05.670Z,49.50
2023-05-19T23:11:32.225Z,49.90
2023-05-19T23:13:58.769Z,49.60
2023-05-19T23:16:25.277Z,49.60
2023-05-19T23:18:51.875Z,49.50
2023-05-19T23:21:18.402Z,49.50
2023-05-19T23:23:44.909Z,49.50
2023-05-19T23:26:11.407Z,49.50
2023-05-19T23:28:37.911Z,49.60
2023-05-19T23:31:04.559Z,50.10
2023-05-19T23:33:31.072Z,49.80
2023-05-19T23:35:57.589Z,50.10
2023-05-19T23:38:24.094Z,49.50
2023-05-19T23:40:50.607Z,49.70
2023-05-19T23:43:17.124Z,50.00
2023-05-19T23:45:43.718Z,49.60
2023-05-19T23:48:10.265Z,49.40
2023-05-19T23:50:36.780Z,50.00
2023-05-19T23:55:30.361Z,49.40
2023-05-19T23:57:56.855Z,49.60
